Stations météo

Publicité
Mont Aigoual, France (7560): Température de l'air & dewpoint: 26.03.2020 08:00:00 - 01.04.2020 08:00:00 (CEST)Mont Aigoual, France (7560): Vitesse du vent & gusts: 26.03.2020 08:00:00 - 01.04.2020 08:00:00 (CEST)Mont Aigoual, France (7560): Direction du vent: 26.03.2020 08:00:00 - 01.04.2020 08:00:00 (CEST)Mont Aigoual, France (7560): visibility: 26.03.2020 08:00:00 - 01.04.2020 08:00:00 (CEST)Mont Aigoual, France (7560): Quantités de précipitations: 26.03.2020 08:00:00 - 01.04.2020 08:00:00 (CEST)
Date & Time tt [°C] td [°C] ff [km/h] ff [knt] fx [km/h] fx [knt] dd vv [km] rr [mm]
01.04.2020 08:00:00 -1,6 -4,1 20 11 38 20 SSE 14 0,0
01.04.2020 07:00:00 -1,8 -5,5 23 13 33 18 ESE 20 0,0
01.04.2020 06:00:00 -1,8 -2,9 19 11 36 19 SSE 7 0,0
01.04.2020 05:00:00 -1,5 -2,5 18 10 36 19 SE 13 0,0
01.04.2020 04:00:00 -1,2 -1,5 27 15 39 21 S 0,8 0,0
01.04.2020 03:00:00 -1,0 -1,1 31 17 49 26 S 0,1 0,0
01.04.2020 02:00:00 -0,5 -0,6 30 16 46 25 S 0,1 0,0
01.04.2020 01:00:00 0,1 0,0 30 16 42 23 S - 0,0
01.04.2020 00:00:00 1,1 1,0 24 13 36 19 SSE - 0,0
31.03.2020 23:00:00 0,8 0,5 16 9 27 14 SSE 0,1 0,0
31.03.2020 22:00:00 1,4 1,3 16 8 26 14 E 0,1 0,0
31.03.2020 21:00:00 1,7 1,4 18 10 34 18 SSE 0,1 0,0
31.03.2020 20:00:00 2,0 1,0 22 12 35 19 S 9 0,0
31.03.2020 19:00:00 2,4 0,5 24 13 39 21 SSE 19 0,0
31.03.2020 18:00:00 3,2 0,1 24 13 48 26 SSE 20 0,0
31.03.2020 17:00:00 3,7 0,0 23 12 46 25 SSE 20 0,0
31.03.2020 16:00:00 3,9 -0,1 22 12 41 22 SSE 20 0,0
31.03.2020 15:00:00 4,2 -0,2 22 12 39 21 SSE 20 0,0
31.03.2020 14:00:00 4,9 0,8 19 10 34 19 S 20 0,0
31.03.2020 13:00:00 3,1 -0,5 13 7 31 17 SSE 20 0,0
31.03.2020 12:00:00 3,7 -0,3 16 9 29 16 S 20 0,0
31.03.2020 11:00:00 2,6 -1,2 14 7 27 14 S 20 0,0
31.03.2020 10:00:00 1,3 -1,6 9 5 25 14 SE 19 0,0
31.03.2020 09:00:00 0,4 -2,3 16 9 24 13 E 20 0,0
31.03.2020 08:00:00 -0,4 -2,6 18 10 25 13 ESE 20 0,0
31.03.2020 07:00:00 0,3 -2,7 20 11 24 13 E 20 0,0
31.03.2020 06:00:00 -0,8 -2,8 16 8 23 12 ENE 20 0,0
31.03.2020 05:00:00 -0,7 -2,9 17 9 24 13 E 20 0,0
31.03.2020 04:00:00 -0,8 -2,7 16 9 24 13 NE 20 0,0
31.03.2020 03:00:00 -0,9 -2,8 16 9 23 12 NE 20 0,0
31.03.2020 02:00:00 -0,7 -1,7 11 6 14 8 NNE 16 0,0
31.03.2020 01:00:00 -0,6 -1,6 6 3 10 5 NNE 20 0,0
31.03.2020 00:00:00 -1,0 -1,7 4 2 15 8 NW 14 0,0
30.03.2020 23:00:00 -0,9 -1,7 10 6 15 8 N 0,4 0,0
30.03.2020 22:00:00 0,1 -1,2 2 1 8 4 ESE 0,7 0,0
30.03.2020 21:00:00 0,5 -1,0 8 5 13 7 S 14 0,0
30.03.2020 20:00:00 0,9 -1,0 6 3 19 10 SSE 20 0,0
30.03.2020 19:00:00 1,3 -1,1 15 8 29 16 S 20 0,0
30.03.2020 18:00:00 2,1 -1,3 13 7 24 13 S 20 0,0
30.03.2020 17:00:00 1,8 -2,0 14 8 31 17 S 20 0,0
30.03.2020 16:00:00 3,0 -1,6 14 8 29 15 S 20 0,0
30.03.2020 15:00:00 1,3 -2,1 10 5 18 10 S 20 0,0
30.03.2020 14:00:00 0,9 -2,5 8 5 21 11 SE 20 0,0
30.03.2020 13:00:00 0,5 -2,7 8 4 20 11 E 13 0,0
30.03.2020 12:00:00 0,3 -2,4 6 3 21 11 S 20 0,0
30.03.2020 11:00:00 0,0 -3,2 7 4 21 11 E 20 0,0
30.03.2020 10:00:00 -2,2 -4,2 6 3 10 6 NE 20 0,0
30.03.2020 09:00:00 -2,0 -3,7 4 2 11 6 SSW 20 0,0
30.03.2020 08:00:00 -2,9 -4,6 8 4 17 9 N 20 0,0
30.03.2020 07:00:00 -2,3 -3,6 12 6 16 9 SSW 15 0,0
30.03.2020 06:00:00 -0,9 -3,8 5 3 23 13 SSW 20 0,0
30.03.2020 05:00:00 -0,5 -3,2 10 6 21 12 W 20 0,0
30.03.2020 04:00:00 -0,7 -4,8 11 6 14 8 NNW 20 0,0
30.03.2020 03:00:00 -0,5 -4,4 13 7 19 10 N 20 0,0
30.03.2020 02:00:00 -0,7 -4,4 14 8 27 15 N 20 0,0
30.03.2020 01:00:00 -0,9 -4,1 24 13 36 19 N 20 0,0
30.03.2020 00:00:00 - - 23 13 37 20 N 20 -
29.03.2020 23:00:00 -1,0 -3,5 32 17 48 26 N 20 0,0
29.03.2020 22:00:00 -1,0 -3,7 38 20 55 30 N 20 0,0
29.03.2020 21:00:00 -0,9 -2,9 42 23 65 35 NNW 17 0,0
29.03.2020 20:00:00 -2,0 -2,8 47 26 65 35 NNW 5 0,0
29.03.2020 19:00:00 -0,6 -1,7 43 23 61 33 NNW 2,2 0,0
29.03.2020 18:00:00 3,2 -0,6 42 23 59 32 NNW 14 0,0
29.03.2020 17:00:00 4,7 -0,5 35 19 54 29 NNW 16 0,0
29.03.2020 16:00:00 6,0 -0,5 29 16 50 27 N 17 0,0
29.03.2020 15:00:00 6,4 0,1 30 16 53 29 N 19 0,0
29.03.2020 14:00:00 6,6 0,3 34 19 50 27 N 16 0,0
29.03.2020 13:00:00 5,0 0,7 35 19 52 28 NNW 16 0,0
29.03.2020 12:00:00 4,9 1,0 34 19 53 28 N 16 0,0
29.03.2020 11:00:00 3,9 0,4 39 21 63 34 N 17 0,0
29.03.2020 10:00:00 3,7 0,0 44 24 66 36 N 18 0,0
29.03.2020 09:00:00 2,1 0,0 47 25 64 34 N 13 0,0
29.03.2020 08:00:00 2,0 -0,3 40 21 58 31 N 15 0,0
29.03.2020 07:00:00 1,9 -0,4 42 23 56 30 N 14 0,0
29.03.2020 06:00:00 2,8 -0,7 37 20 54 29 N 18 0,0
29.03.2020 05:00:00 2,0 -0,1 36 19 51 28 N 13 0,0
29.03.2020 04:00:00 1,8 -0,6 33 18 48 26 N 17 0,0
29.03.2020 03:00:00 1,8 -1,1 31 17 53 28 N 20 0,0
29.03.2020 02:00:00 2,4 -1,6 46 25 62 34 N 20 0,0
29.03.2020 01:00:00 3,0 -0,6 53 29 65 35 N 20 0,0
29.03.2020 00:00:00 2,8 -1,9 48 26 66 35 NNW 20 0,0
28.03.2020 23:00:00 3,3 -2,5 49 27 63 34 NNW 20 0,0
28.03.2020 22:00:00 3,8 -2,2 47 25 67 36 NNW 20 0,0
28.03.2020 21:00:00 4,1 -1,5 44 24 60 33 NNW 20 0,0
28.03.2020 20:00:00 5,0 -1,0 43 23 55 30 NW 20 0,0
28.03.2020 19:00:00 6,7 -1,7 34 19 55 30 NW 20 0,0
28.03.2020 18:00:00 8,2 -0,8 28 15 44 24 NNW 20 0,0
28.03.2020 17:00:00 8,7 -0,6 24 13 45 25 N 20 0,0
28.03.2020 16:00:00 7,9 -1,4 22 12 38 20 NNW 20 0,0
28.03.2020 15:00:00 8,0 -1,8 20 11 35 19 N 20 0,0
28.03.2020 14:00:00 6,9 -1,8 18 10 45 24 N 19 0,0
28.03.2020 13:00:00 6,0 -2,1 26 14 42 23 NNW 20 0,0
28.03.2020 12:00:00 5,2 -2,4 23 12 39 21 N 20 0,0
28.03.2020 11:00:00 4,7 -3,3 26 14 43 23 N 20 0,0
28.03.2020 10:00:00 4,1 -2,8 27 15 40 22 N 20 0,0
28.03.2020 09:00:00 2,8 -2,9 27 15 38 21 N 20 0,0
28.03.2020 08:00:00 2,4 -2,3 27 15 34 18 N 20 0,0
28.03.2020 07:00:00 1,9 -2,6 18 10 21 11 NW 20 0,0
28.03.2020 06:00:00 2,7 -2,4 9 5 10 5 WNW 20 0,0
28.03.2020 05:00:00 2,6 -2,3 8 4 9 5 W 20 0,0
28.03.2020 04:00:00 3,0 -2,7 3 2 10 5 SSW 20 0,0
28.03.2020 03:00:00 2,6 -2,5 2 1 5 3 S 20 0,0
28.03.2020 02:00:00 2,5 -2,4 4 2 9 5 E 20 0,0
28.03.2020 01:00:00 2,3 -2,4 8 5 11 6 NE 20 0,0
28.03.2020 00:00:00 1,7 -3,0 6 3 19 11 NNW 20 0,0
27.03.2020 23:00:00 1,7 -3,0 16 9 32 17 NW 20 0,0
27.03.2020 22:00:00 1,8 -3,1 22 12 36 19 NW 20 0,0
27.03.2020 21:00:00 2,0 -2,5 23 12 29 16 NW 20 0,0
27.03.2020 20:00:00 3,4 -1,6 7 4 14 8 W 20 0,0
27.03.2020 19:00:00 4,2 -2,0 7 4 24 13 S 20 0,0
27.03.2020 18:00:00 5,5 -1,7 14 7 40 21 S 20 0,0
27.03.2020 17:00:00 6,2 -1,7 18 10 35 19 S 20 0,0
27.03.2020 16:00:00 6,6 -1,8 16 9 41 22 S 20 0,0
27.03.2020 15:00:00 6,9 -2,6 6 4 24 13 SE 20 0,0
27.03.2020 14:00:00 5,7 -5,0 10 6 22 12 NNE 20 0,0
27.03.2020 13:00:00 4,9 -5,5 10 5 21 12 NNE 20 0,0
27.03.2020 12:00:00 3,8 -5,4 5 3 24 13 NE 20 0,0
27.03.2020 11:00:00 3,2 -4,1 4 2 11 6 SSE 20 0,0
27.03.2020 10:00:00 1,7 -7,6 5 3 18 10 NW 20 0,0
27.03.2020 09:00:00 0,3 -7,9 14 8 22 12 WNW 20 0,0
27.03.2020 08:00:00 -0,4 -8,1 18 10 23 13 NNW 20 0,0
27.03.2020 07:00:00 -0,6 -8,1 19 10 29 16 N 20 0,0
27.03.2020 06:00:00 -0,6 -7,6 19 11 26 14 N 20 0,0
27.03.2020 05:00:00 -0,8 -7,8 16 9 39 21 NNE 20 0,0
27.03.2020 04:00:00 -1,0 -7,8 24 13 41 22 NNE 20 0,0
27.03.2020 03:00:00 -1,8 -8,3 27 14 35 19 N 20 0,0
27.03.2020 02:00:00 -2,2 -8,5 29 16 39 21 N 20 0,0
27.03.2020 01:00:00 -2,3 -8,6 33 18 41 22 N 20 0,0
27.03.2020 00:00:00 -2,6 -6,2 21 12 38 21 N 20 0,0
26.03.2020 23:00:00 -2,5 -4,7 25 13 31 17 N 20 0,0
26.03.2020 22:00:00 -2,2 -6,6 17 9 24 13 N 20 0,0
26.03.2020 21:00:00 -2,3 -7,0 14 8 17 9 N 20 0,0
26.03.2020 20:00:00 -1,6 -6,5 10 5 13 7 N 20 0,0
26.03.2020 19:00:00 -1,3 -6,3 6 3 16 9 E 20 0,0
26.03.2020 18:00:00 -2,0 -6,0 7 4 18 10 NE 20 0,0
26.03.2020 17:00:00 -3,2 -6,3 6 4 17 9 N 20 0,0
26.03.2020 16:00:00 -2,6 -3,2 9 5 26 14 SE 20 0,0
26.03.2020 15:00:00 -2,8 -3,2 14 8 26 14 SSE 18 0,0
26.03.2020 14:00:00 -3,6 -4,1 13 7 26 14 ESE 19 0,0
26.03.2020 13:00:00 -3,0 -3,4 12 6 27 14 SSE 1,1 0,0
26.03.2020 12:00:00 -4,0 -4,5 9 5 29 16 S 0,4 0,0
26.03.2020 11:00:00 -4,6 -5,1 22 12 33 18 S 0,1 0,0
26.03.2020 10:00:00 -5,1 -5,8 22 12 34 18 S 1,1 0,0
26.03.2020 09:00:00 -5,4 -6,1 18 10 27 15 S 0,8 0,0
26.03.2020 08:00:00 - - - - - - - - -

tt = Température de l'air
td = dewpoint
ff = Vitesse du vent
fx = gusts
dd = Direction du vent
vv = visibility
rr = Quantités de précipitations

stations d'obs. à proximité